Time;durP1;ratioP1;P1;durP2;ratioP2;P2;SDS_P1;SDS_P2;PMS_P1;PMS_P2;Temp;Humidity;BMP_temperature;BMP_pressure;BME280_temperature;BME280_humidity;BME280_pressure;Samples;Min_cycle;Max_cycle;Signal;HPM_P1;HPM_P2
2022/04/02 00:00:57;;;;;;;29.20;19.90;;;;;;;;;;5052508;28;20029;-63
2022/04/02 00:03:23;;;;;;;28.00;19.23;;;;;;;;;;5052893;28;20356;-63
2022/04/02 00:05:50;;;;;;;29.05;19.33;;;;;;;;;;5038358;28;20032;-64
2022/04/02 00:08:16;;;;;;;27.08;20.00;;;;;;;;;;5056251;28;20484;-63
2022/04/02 00:10:43;;;;;;;27.75;20.67;;;;;;;;;;5056230;28;20429;-63
2022/04/02 00:13:09;;;;;;;26.45;20.35;;;;;;;;;;5038232;28;20028;-63
2022/04/02 00:15:35;;;;;;;26.75;19.45;;;;;;;;;;5056354;28;20053;-64
2022/04/02 00:18:01;;;;;;;30.00;19.50;;;;;;;;;;5056121;28;20029;-63
2022/04/02 00:20:27;;;;;;;28.85;20.77;;;;;;;;;;5056073;28;20029;-63
2022/04/02 00:25:38;;;;;;;29.00;20.52;;;;;;;;;;5055834;28;20039;-63
2022/04/02 00:28:05;;;;;;;28.45;19.85;;;;;;;;;;5056161;28;20032;-63
2022/04/02 00:30:31;;;;;;;30.05;22.38;;;;;;;;;;5037880;28;20057;-63
2022/04/02 00:32:58;;;;;;;31.13;22.08;;;;;;;;;;5055844;28;20025;-63
2022/04/02 00:35:24;;;;;;;32.15;21.45;;;;;;;;;;5055788;28;20112;-63
2022/04/02 00:37:50;;;;;;;30.65;21.02;;;;;;;;;;5055424;28;20024;-63
2022/04/02 00:40:16;;;;;;;35.58;22.08;;;;;;;;;;5055691;28;20037;-62
2022/04/02 00:42:44;;;;;;;32.00;20.98;;;;;;;;;;5055664;28;20064;-62
2022/04/02 00:45:11;;;;;;;29.00;20.52;;;;;;;;;;5055540;28;20021;-62
2022/04/02 00:47:38;;;;;;;30.63;20.60;;;;;;;;;;5055543;28;20027;-62
2022/04/02 00:50:04;;;;;;;30.35;20.35;;;;;;;;;;5055472;28;20100;-62
2022/04/02 00:52:31;;;;;;;28.73;21.38;;;;;;;;;;5037532;28;20021;-65
2022/04/02 00:54:57;;;;;;;34.30;22.35;;;;;;;;;;5055629;28;20100;-62
2022/04/02 00:57:24;;;;;;;34.60;21.55;;;;;;;;;;5037488;28;20175;-65
2022/04/02 00:59:51;;;;;;;30.50;20.30;;;;;;;;;;5055291;28;20024;-63
2022/04/02 01:02:19;;;;;;;26.90;18.83;;;;;;;;;;5055275;28;20108;-63
2022/04/02 01:04:46;;;;;;;27.73;19.75;;;;;;;;;;5055133;28;20021;-63
2022/04/02 01:07:13;;;;;;;27.85;19.35;;;;;;;;;;5055224;28;20048;-64
2022/04/02 01:09:39;;;;;;;30.45;19.85;;;;;;;;;;5054884;28;20029;-63
2022/04/02 01:12:06;;;;;;;29.52;21.30;;;;;;;;;;5055073;28;20025;-64
2022/04/02 01:14:32;;;;;;;30.33;19.85;;;;;;;;;;5033018;28;20050;-65
2022/04/02 01:17:01;;;;;;;28.52;21.60;;;;;;;;;;5035017;28;20032;-65
2022/04/02 01:19:28;;;;;;;28.23;21.75;;;;;;;;;;5034730;28;20382;-63
2022/04/02 01:21:54;;;;;;;33.60;24.65;;;;;;;;;;5034680;28;20432;-63
2022/04/02 01:24:20;;;;;;;33.72;24.17;;;;;;;;;;5034910;28;20520;-63
2022/04/02 01:26:46;;;;;;;34.88;26.52;;;;;;;;;;5034830;28;20080;-62
2022/04/02 01:29:13;;;;;;;35.85;25.90;;;;;;;;;;5035109;28;20040;-63
2022/04/02 01:31:43;;;;;;;34.88;26.30;;;;;;;;;;5033457;28;20025;-64
2022/04/02 01:34:09;;;;;;;37.88;27.73;;;;;;;;;;5034733;28;20080;-64
2022/04/02 01:36:35;;;;;;;39.40;29.70;;;;;;;;;;5033397;28;20030;-65
2022/04/02 01:39:02;;;;;;;35.72;27.23;;;;;;;;;;5034910;28;20523;-63
2022/04/02 01:41:28;;;;;;;32.90;25.63;;;;;;;;;;5034591;28;20018;-63
2022/04/02 01:43:54;;;;;;;31.25;24.80;;;;;;;;;;5034255;28;20021;-62
2022/04/02 01:46:21;;;;;;;33.70;26.27;;;;;;;;;;5034489;28;20029;-63
2022/04/02 01:48:47;;;;;;;33.75;24.15;;;;;;;;;;5034452;28;20083;-63
2022/04/02 01:51:13;;;;;;;30.27;23.60;;;;;;;;;;5034364;28;20049;-64
2022/04/02 01:53:39;;;;;;;36.72;27.58;;;;;;;;;;5034335;28;20028;-64
2022/04/02 01:56:09;;;;;;;35.33;27.67;;;;;;;;;;5034050;28;20028;-64
2022/04/02 01:58:35;;;;;;;33.33;25.95;;;;;;;;;;5034346;28;20060;-64
2022/04/02 02:01:02;;;;;;;29.70;23.63;;;;;;;;;;5034192;28;20083;-64
2022/04/02 02:03:28;;;;;;;35.65;26.70;;;;;;;;;;5034212;28;20477;-64
2022/04/02 02:05:54;;;;;;;72.85;51.33;;;;;;;;;;5034237;28;20032;-64
2022/04/02 02:08:20;;;;;;;151.02;107.18;;;;;;;;;;5032756;28;20033;-64
2022/04/02 02:10:48;;;;;;;338.65;252.77;;;;;;;;;;5032729;28;20036;-64
2022/04/02 02:13:14;;;;;;;120.90;94.15;;;;;;;;;;5034005;28;20433;-62
2022/04/02 02:15:40;;;;;;;30.50;24.02;;;;;;;;;;5053887;28;20127;-64
2022/04/02 02:18:07;;;;;;;37.97;29.67;;;;;;;;;;5053812;28;20108;-64
2022/04/02 02:20:33;;;;;;;36.60;29.95;;;;;;;;;;5053728;28;20543;-64
2022/04/02 02:22:59;;;;;;;34.45;26.77;;;;;;;;;;5053764;28;20370;-64
2022/04/02 02:25:26;;;;;;;37.55;28.77;;;;;;;;;;5053403;28;20032;-64
2022/04/02 02:27:52;;;;;;;41.40;31.73;;;;;;;;;;5053162;28;20036;-64
2022/04/02 02:30:19;;;;;;;36.97;28.25;;;;;;;;;;5053590;28;20469;-64
2022/04/02 02:32:45;;;;;;;34.42;26.25;;;;;;;;;;5053252;28;20377;-64
2022/04/02 02:38:06;;;;;;;38.05;28.25;;;;;;;;;;5053510;28;20037;-64
2022/04/02 02:40:33;;;;;;;39.10;27.00;;;;;;;;;;5053499;28;20025;-64
2022/04/02 02:42:59;;;;;;;33.58;26.77;;;;;;;;;;5053352;28;20025;-64
2022/04/02 02:45:26;;;;;;;35.63;27.65;;;;;;;;;;5053266;28;20037;-64
2022/04/02 02:47:53;;;;;;;34.67;26.17;;;;;;;;;;5053408;28;20128;-64
2022/04/02 02:50:20;;;;;;;34.85;25.42;;;;;;;;;;5053220;28;20028;-65
2022/04/02 02:52:46;;;;;;;36.80;27.67;;;;;;;;;;5053244;28;20112;-64
2022/04/02 02:55:12;;;;;;;35.80;26.70;;;;;;;;;;5053192;28;20032;-64
2022/04/02 02:57:41;;;;;;;36.17;28.17;;;;;;;;;;5052911;28;20021;-64
2022/04/02 03:00:08;;;;;;;36.28;26.52;;;;;;;;;;5053102;28;20029;-65
2022/04/02 03:02:37;;;;;;;36.15;27.00;;;;;;;;;;5053082;28;20023;-65
2022/04/02 03:05:10;;;;;;;37.63;27.85;;;;;;;;;;5053003;28;20055;-65
2022/04/02 03:07:48;;;;;;;35.03;26.48;;;;;;;;;;5053044;28;20091;-65
2022/04/02 03:10:14;;;;;;;37.25;28.30;;;;;;;;;;5053046;28;20049;-64
2022/04/02 03:12:40;;;;;;;40.33;28.52;;;;;;;;;;5052970;28;20032;-64
2022/04/02 03:15:07;;;;;;;49.53;35.30;;;;;;;;;;5052434;28;20057;-64
2022/04/02 03:17:33;;;;;;;79.95;63.45;;;;;;;;;;5052662;28;20537;-64
2022/04/02 03:20:00;;;;;;;144.68;111.70;;;;;;;;;;5052877;28;20466;-64
2022/04/02 03:22:27;;;;;;;55.28;40.90;;;;;;;;;;5052821;28;20104;-64
2022/04/02 03:24:54;;;;;;;38.42;29.70;;;;;;;;;;5052492;28;20470;-64
2022/04/02 03:27:21;;;;;;;69.05;52.85;;;;;;;;;;5052552;28;20391;-64
2022/04/02 03:29:48;;;;;;;133.50;107.68;;;;;;;;;;5034845;28;20036;-64
2022/04/02 03:32:14;;;;;;;75.88;63.25;;;;;;;;;;5052787;28;20024;-64
2022/04/02 03:34:40;;;;;;;70.97;57.30;;;;;;;;;;5052994;28;20377;-64
2022/04/02 03:37:06;;;;;;;54.65;45.10;;;;;;;;;;5035145;28;20029;-64
2022/04/02 03:39:36;;;;;;;41.60;32.70;;;;;;;;;;5057066;28;20024;-64
2022/04/02 03:42:04;;;;;;;43.60;32.50;;;;;;;;;;5038732;28;20025;-64
2022/04/02 03:44:30;;;;;;;37.53;28.65;;;;;;;;;;5056632;28;20037;-64
2022/04/02 03:47:09;;;;;;;39.50;30.10;;;;;;;;;;5056609;28;20076;-64
2022/04/02 03:49:39;;;;;;;41.45;30.23;;;;;;;;;;5056680;28;20107;-65
2022/04/02 03:52:05;;;;;;;38.65;30.13;;;;;;;;;;5056607;28;20109;-64
2022/04/02 03:54:31;;;;;;;35.67;28.05;;;;;;;;;;5056605;28;20040;-64
2022/04/02 03:56:58;;;;;;;34.08;27.63;;;;;;;;;;5056445;28;20029;-64
2022/04/02 03:59:24;;;;;;;35.67;28.27;;;;;;;;;;5056462;28;20028;-64
2022/04/02 04:01:51;;;;;;;39.10;30.17;;;;;;;;;;5056131;28;20469;-64
2022/04/02 04:04:17;;;;;;;39.45;29.83;;;;;;;;;;5056400;28;20037;-64
2022/04/02 04:06:43;;;;;;;37.95;28.73;;;;;;;;;;5056269;28;20025;-64
2022/04/02 04:09:09;;;;;;;41.05;33.15;;;;;;;;;;5038253;28;20465;-64
2022/04/02 04:11:35;;;;;;;41.22;30.20;;;;;;;;;;5038262;28;20031;-64
2022/04/02 04:14:02;;;;;;;41.92;31.85;;;;;;;;;;5056077;28;20045;-64
2022/04/02 04:16:28;;;;;;;41.58;32.88;;;;;;;;;;5056389;28;20097;-64
2022/04/02 04:18:54;;;;;;;45.28;35.35;;;;;;;;;;5056096;28;20033;-64
2022/04/02 04:21:20;;;;;;;45.08;34.28;;;;;;;;;;5056045;28;20040;-64
2022/04/02 04:23:46;;;;;;;42.92;32.60;;;;;;;;;;5055982;28;20037;-64
2022/04/02 04:26:13;;;;;;;41.55;33.03;;;;;;;;;;5055871;28;20037;-64
2022/04/02 04:28:39;;;;;;;40.83;30.75;;;;;;;;;;5055941;28;20041;-64
2022/04/02 04:31:06;;;;;;;41.80;34.47;;;;;;;;;;5055893;28;20491;-64
2022/04/02 04:33:32;;;;;;;43.13;32.67;;;;;;;;;;5055822;28;20021;-64
2022/04/02 04:36:01;;;;;;;40.90;31.20;;;;;;;;;;5055753;28;20468;-64
2022/04/02 04:38:27;;;;;;;37.30;29.63;;;;;;;;;;5055744;28;20029;-64
2022/04/02 04:40:54;;;;;;;39.65;30.85;;;;;;;;;;5055668;28;20385;-64
2022/04/02 04:43:20;;;;;;;39.65;31.33;;;;;;;;;;5055715;28;20033;-64
2022/04/02 04:45:46;;;;;;;35.97;29.30;;;;;;;;;;5037550;28;20025;-65
2022/04/02 04:48:12;;;;;;;35.13;27.67;;;;;;;;;;5037579;28;20029;-64
2022/04/02 04:50:39;;;;;;;38.00;29.60;;;;;;;;;;5054666;28;20031;-64
2022/04/02 04:53:05;;;;;;;35.63;27.50;;;;;;;;;;5055425;28;20428;-64
2022/04/02 04:55:31;;;;;;;38.10;31.10;;;;;;;;;;5055694;28;20028;-65
2022/04/02 04:57:57;;;;;;;40.72;32.78;;;;;;;;;;5055542;28;20035;-64
2022/04/02 05:00:23;;;;;;;43.92;33.55;;;;;;;;;;5055276;28;20089;-64
2022/04/02 05:02:49;;;;;;;42.35;32.00;;;;;;;;;;5055516;28;20032;-64
2022/04/02 05:05:16;;;;;;;37.28;29.83;;;;;;;;;;5055171;28;20072;-64
2022/04/02 05:07:42;;;;;;;35.45;27.77;;;;;;;;;;5037248;28;20033;-64
2022/04/02 05:10:09;;;;;;;39.15;29.17;;;;;;;;;;5055114;28;20080;-65
2022/04/02 05:12:39;;;;;;;37.00;28.17;;;;;;;;;;5054796;28;20025;-64
2022/04/02 05:15:08;;;;;;;41.03;32.08;;;;;;;;;;5055008;28;20486;-65
2022/04/02 05:17:34;;;;;;;35.92;29.00;;;;;;;;;;5055029;28;20021;-64
2022/04/02 05:20:01;;;;;;;35.38;28.35;;;;;;;;;;5037037;28;20025;-64
2022/04/02 05:22:27;;;;;;;38.63;29.20;;;;;;;;;;5055160;28;20058;-63
2022/04/02 05:24:53;;;;;;;35.53;28.85;;;;;;;;;;5054739;28;20488;-64
2022/04/02 05:27:19;;;;;;;32.35;27.00;;;;;;;;;;5036935;28;20029;-64
2022/04/02 05:29:46;;;;;;;37.40;28.42;;;;;;;;;;5036742;28;20031;-64
2022/04/02 05:32:12;;;;;;;33.58;27.00;;;;;;;;;;5054701;28;20024;-64
2022/04/02 05:34:38;;;;;;;37.67;29.25;;;;;;;;;;5054879;28;20032;-64
2022/04/02 05:37:05;;;;;;;40.67;28.00;;;;;;;;;;5036727;28;20040;-64
2022/04/02 05:39:32;;;;;;;40.83;31.52;;;;;;;;;;5054273;28;20373;-64
2022/04/02 05:41:59;;;;;;;37.50;29.77;;;;;;;;;;5054531;28;20450;-64
2022/04/02 05:44:25;;;;;;;38.83;29.65;;;;;;;;;;5054430;28;20040;-64
2022/04/02 05:46:51;;;;;;;37.22;27.23;;;;;;;;;;5036074;28;20039;-64
2022/04/02 05:49:18;;;;;;;38.85;28.42;;;;;;;;;;5054738;28;20033;-64
2022/04/02 05:51:44;;;;;;;35.75;28.20;;;;;;;;;;5054278;28;20033;-64
2022/04/02 05:54:10;;;;;;;41.10;30.05;;;;;;;;;;5036350;28;20033;-64
2022/04/02 05:56:37;;;;;;;39.20;30.20;;;;;;;;;;5053920;28;20116;-64
2022/04/02 05:59:05;;;;;;;38.65;28.95;;;;;;;;;;5054256;28;20075;-64
2022/04/02 06:01:31;;;;;;;35.55;28.10;;;;;;;;;;5054116;28;20093;-64
2022/04/02 06:03:57;;;;;;;36.95;27.25;;;;;;;;;;5053792;28;20444;-64
2022/04/02 06:06:24;;;;;;;38.22;29.50;;;;;;;;;;5053974;28;20036;-64
2022/04/02 06:08:50;;;;;;;37.63;29.17;;;;;;;;;;5054032;28;20103;-64
2022/04/02 06:11:16;;;;;;;40.95;30.42;;;;;;;;;;5053986;28;20533;-64
2022/04/02 06:13:42;;;;;;;42.30;31.10;;;;;;;;;;5053344;28;20063;-63
2022/04/02 06:16:09;;;;;;;45.40;32.45;;;;;;;;;;5053816;28;20025;-64
2022/04/02 06:18:38;;;;;;;52.33;33.17;;;;;;;;;;5053861;28;20033;-62
2022/04/02 06:21:04;;;;;;;40.55;29.55;;;;;;;;;;5060866;28;20098;-62
2022/04/02 06:23:31;;;;;;;40.45;30.83;;;;;;;;;;5059612;28;21435;-62
2022/04/02 06:25:57;;;;;;;40.17;28.85;;;;;;;;;;5064680;28;20064;-64
2022/04/02 06:28:24;;;;;;;44.13;32.03;;;;;;;;;;5073224;28;20033;-64
2022/04/02 06:30:50;;;;;;;39.78;30.02;;;;;;;;;;5073471;28;20025;-64
2022/04/02 06:33:16;;;;;;;43.95;31.17;;;;;;;;;;5073010;28;20526;-64
2022/04/02 06:35:43;;;;;;;38.25;29.42;;;;;;;;;;5073383;28;20465;-64
2022/04/02 06:38:09;;;;;;;38.20;26.95;;;;;;;;;;5073326;28;20481;-64
2022/04/02 06:40:35;;;;;;;35.15;27.25;;;;;;;;;;5073330;28;20056;-63
2022/04/02 06:43:01;;;;;;;35.20;26.83;;;;;;;;;;5073332;28;20029;-63
2022/04/02 06:45:27;;;;;;;37.28;27.20;;;;;;;;;;5073015;28;20473;-63
2022/04/02 06:47:54;;;;;;;34.50;26.83;;;;;;;;;;5073296;28;20060;-64
2022/04/02 06:50:20;;;;;;;42.08;30.13;;;;;;;;;;5073215;28;20037;-64
2022/04/02 06:52:46;;;;;;;43.40;31.85;;;;;;;;;;5073098;28;20052;-63
2022/04/02 06:55:15;;;;;;;40.30;30.55;;;;;;;;;;5055096;28;20033;-63
2022/04/02 06:58:01;;;;;;;40.75;29.42;;;;;;;;;;5066632;28;20033;-63
2022/04/02 07:00:28;;;;;;;35.05;27.08;;;;;;;;;;5062029;28;20477;-64
2022/04/02 07:02:54;;;;;;;32.00;25.52;;;;;;;;;;5061927;28;20017;-63
2022/04/02 07:05:20;;;;;;;37.42;26.77;;;;;;;;;;5072429;28;20033;-63
2022/04/02 07:07:47;;;;;;;34.60;27.65;;;;;;;;;;5072985;28;20032;-63
2022/04/02 07:10:13;;;;;;;35.50;26.98;;;;;;;;;;5072916;28;20036;-64
2022/04/02 07:12:40;;;;;;;40.75;30.33;;;;;;;;;;5054444;28;20024;-64
2022/04/02 07:15:07;;;;;;;38.45;29.23;;;;;;;;;;5072863;28;20052;-65
2022/04/02 07:17:34;;;;;;;40.33;28.70;;;;;;;;;;5056931;28;20074;-65
2022/04/02 07:20:01;;;;;;;40.55;30.40;;;;;;;;;;5052366;28;20021;-66
2022/04/02 07:22:28;;;;;;;47.15;31.23;;;;;;;;;;5052381;28;20071;-66
2022/04/02 07:24:55;;;;;;;48.83;33.22;;;;;;;;;;5050767;28;20474;-68
2022/04/02 07:27:23;;;;;;;50.28;33.33;;;;;;;;;;5051802;28;20056;-65
2022/04/02 07:29:56;;;;;;;51.78;34.72;;;;;;;;;;5052367;28;20032;-65
2022/04/02 07:32:23;;;;;;;51.60;34.38;;;;;;;;;;5052684;28;20029;-65
2022/04/02 07:34:49;;;;;;;47.95;33.20;;;;;;;;;;5052491;28;20032;-66
2022/04/02 07:37:21;;;;;;;74.13;51.00;;;;;;;;;;5052690;28;20031;-65
2022/04/02 07:39:54;;;;;;;51.63;36.95;;;;;;;;;;5052499;28;20043;-65
2022/04/02 07:42:20;;;;;;;49.05;35.75;;;;;;;;;;5052565;28;20025;-64
2022/04/02 07:45:06;;;;;;;42.70;32.42;;;;;;;;;;5052650;28;20036;-64
2022/04/02 07:47:34;;;;;;;43.53;32.75;;;;;;;;;;5052479;28;20033;-65
2022/04/02 07:50:13;;;;;;;44.88;33.05;;;;;;;;;;5034552;28;20085;-65
2022/04/02 07:52:43;;;;;;;45.88;33.83;;;;;;;;;;5034378;28;20071;-65
2022/04/02 07:55:10;;;;;;;42.38;32.10;;;;;;;;;;5052598;28;20078;-65
2022/04/02 07:57:46;;;;;;;40.80;30.00;;;;;;;;;;5052428;28;20029;-65
2022/04/02 08:00:13;;;;;;;41.47;29.50;;;;;;;;;;5034585;28;20025;-65
2022/04/02 08:02:42;;;;;;;36.53;28.08;;;;;;;;;;5052206;28;20112;-65
2022/04/02 08:05:16;;;;;;;36.85;27.40;;;;;;;;;;5034437;28;20099;-64
2022/04/02 08:07:49;;;;;;;37.55;28.67;;;;;;;;;;5052368;28;20351;-64
2022/04/02 08:10:16;;;;;;;50.15;33.03;;;;;;;;;;5052409;28;20531;-64
2022/04/02 08:12:43;;;;;;;47.22;34.08;;;;;;;;;;5062340;28;20033;-65
2022/04/02 08:15:11;;;;;;;44.40;31.42;;;;;;;;;;5061345;28;20086;-64
2022/04/02 08:17:38;;;;;;;41.28;29.73;;;;;;;;;;5062921;28;20055;-64
2022/04/02 08:20:05;;;;;;;44.08;30.42;;;;;;;;;;5061565;28;20167;-64
2022/04/02 08:22:31;;;;;;;43.95;31.50;;;;;;;;;;5056060;28;20021;-64
2022/04/02 08:24:58;;;;;;;47.28;33.08;;;;;;;;;;5053968;28;20075;-64
2022/04/02 08:27:24;;;;;;;44.03;33.13;;;;;;;;;;5055901;28;20028;-65
2022/04/02 08:29:51;;;;;;;47.78;32.58;;;;;;;;;;5055919;28;20055;-64
2022/04/02 08:32:23;;;;;;;48.55;33.92;;;;;;;;;;5037854;28;20040;-64
2022/04/02 08:34:57;;;;;;;53.92;36.75;;;;;;;;;;5055740;28;20029;-64
2022/04/02 08:37:35;;;;;;;52.72;36.25;;;;;;;;;;5055792;28;20021;-64
2022/04/02 08:40:20;;;;;;;51.92;34.85;;;;;;;;;;5056033;28;20025;-64
2022/04/02 08:43:21;;;;;;;55.42;39.85;;;;;;;;;;5055627;28;20074;-65
2022/04/02 08:46:12;;;;;;;64.97;45.30;;;;;;;;;;4952819;28;20047;-65
2022/04/02 08:48:46;;;;;;;74.20;49.25;;;;;;;;;;5031863;28;20049;-64
2022/04/02 08:51:14;;;;;;;56.38;40.00;;;;;;;;;;5035442;28;20034;-64
2022/04/02 08:53:57;;;;;;;51.92;36.97;;;;;;;;;;5035382;28;20454;-64
2022/04/02 08:56:25;;;;;;;56.58;37.97;;;;;;;;;;5017513;28;20030;-64
2022/04/02 08:59:05;;;;;;;53.13;37.47;;;;;;;;;;5017338;28;20056;-64
2022/04/02 09:01:38;;;;;;;65.32;45.38;;;;;;;;;;5017358;28;20458;-64
2022/04/02 09:04:27;;;;;;;80.28;51.35;;;;;;;;;;5035094;28;20455;-70
2022/04/02 09:07:08;;;;;;;80.75;51.17;;;;;;;;;;5035175;28;20033;-65
2022/04/02 09:09:47;;;;;;;72.35;47.28;;;;;;;;;;5035139;28;20036;-65
2022/04/02 09:12:25;;;;;;;64.55;44.15;;;;;;;;;;5035073;28;20435;-66
2022/04/02 09:15:17;;;;;;;64.50;40.70;;;;;;;;;;5034750;28;20505;-67
2022/04/02 09:18:01;;;;;;;67.35;43.38;;;;;;;;;;5030584;28;20116;-64
2022/04/02 09:20:51;;;;;;;68.43;43.63;;;;;;;;;;5035042;28;20466;-64
2022/04/02 09:23:35;;;;;;;63.63;40.60;;;;;;;;;;5021868;28;20551;-62
2022/04/02 09:26:20;;;;;;;55.42;37.80;;;;;;;;;;5035028;28;20029;-64
2022/04/02 09:28:59;;;;;;;59.65;39.28;;;;;;;;;;5034729;28;20108;-63
2022/04/02 09:31:43;;;;;;;56.60;39.60;;;;;;;;;;5034885;28;20079;-64
2022/04/02 09:34:09;;;;;;;61.78;41.85;;;;;;;;;;5016987;28;20116;-62
2022/04/02 09:36:36;;;;;;;61.83;41.45;;;;;;;;;;5034515;28;20037;-63
2022/04/02 09:39:04;;;;;;;62.22;42.33;;;;;;;;;;5034832;28;20021;-63
2022/04/02 09:41:37;;;;;;;63.47;43.78;;;;;;;;;;5034648;28;20034;-63
2022/04/02 09:44:13;;;;;;;62.70;41.05;;;;;;;;;;5016773;28;20025;-62
2022/04/02 09:46:42;;;;;;;57.83;38.28;;;;;;;;;;5034174;28;20528;-63
2022/04/02 09:49:24;;;;;;;54.03;34.78;;;;;;;;;;5016676;28;20051;-63
2022/04/02 09:51:57;;;;;;;43.40;31.48;;;;;;;;;;5034367;28;20025;-64
2022/04/02 09:54:31;;;;;;;42.33;30.63;;;;;;;;;;5034481;28;20030;-64
2022/04/02 09:57:23;;;;;;;42.95;31.73;;;;;;;;;;5034247;28;20033;-67
2022/04/02 09:59:55;;;;;;;40.03;29.02;;;;;;;;;;4934471;29;20031;-64
2022/04/02 10:02:32;;;;;;;41.95;29.90;;;;;;;;;;4944597;28;20063;-66
2022/04/02 10:05:04;;;;;;;36.75;27.75;;;;;;;;;;4972577;28;20118;-69
2022/04/02 10:07:40;;;;;;;37.95;26.80;;;;;;;;;;4972912;28;20034;-66
2022/04/02 10:10:07;;;;;;;35.15;26.05;;;;;;;;;;4972797;28;20039;-67
2022/04/02 10:12:40;;;;;;;36.72;28.33;;;;;;;;;;4972761;28;20085;-67
2022/04/02 10:15:06;;;;;;;39.50;29.05;;;;;;;;;;4972486;28;20109;-67
2022/04/02 10:17:35;;;;;;;43.13;30.88;;;;;;;;;;4972942;28;20563;-69
2022/04/02 10:20:01;;;;;;;42.20;27.70;;;;;;;;;;4972531;28;20031;-69
2022/04/02 10:22:44;;;;;;;38.95;29.63;;;;;;;;;;4972386;28;20050;-69
2022/04/02 10:25:12;;;;;;;40.45;27.95;;;;;;;;;;4972519;28;20026;-65
2022/04/02 10:27:39;;;;;;;43.67;29.15;;;;;;;;;;4972373;28;20146;-64
2022/04/02 10:30:07;;;;;;;46.13;32.47;;;13.20;99.90;;;;;;4972303;28;20142;-66
2022/04/02 10:32:34;;;;;;;43.15;31.80;;;;;;;;;;4972452;28;20598;-66
2022/04/02 10:35:07;;;;;;;49.67;34.78;;;;;;;;;;4972156;28;20019;-66
2022/04/02 10:37:40;;;;;;;53.33;34.75;;;;;;;;;;5026797;28;20025;-66
2022/04/02 10:40:11;;;;;;;55.45;37.53;;;;;;;;;;5033476;28;20220;-66
2022/04/02 10:42:39;;;;;;;56.00;38.63;;;;;;;;;;5033400;28;20025;-66
2022/04/02 10:45:12;;;;;;;56.30;37.95;;;;;;;;;;5015485;28;20577;-67
2022/04/02 10:47:49;;;;;;;51.70;35.88;;;;;;;;;;5032290;28;20029;-65
2022/04/02 10:50:22;;;;;;;54.05;36.67;;;;;;;;;;5033257;28;20017;-65
2022/04/02 10:52:49;;;;;;;56.25;37.78;;;;;;;;;;5033288;28;20480;-66
2022/04/02 10:55:17;;;;;;;57.75;38.33;;;;;;;;;;5033080;28;20025;-65
2022/04/02 10:57:47;;;;;;;180.27;87.22;;;;;;;;;;5032955;28;20112;-65
2022/04/02 11:00:13;;;;;;;70.00;46.17;;;;;;;;;;5015341;28;20071;-66
2022/04/02 11:02:46;;;;;;;63.10;40.42;;;;;;;;;;5032934;28;20075;-64
2022/04/02 11:05:14;;;;;;;50.85;36.15;;;;;;;;;;5015173;28;20478;-64
2022/04/02 11:07:43;;;;;;;51.78;35.95;;;;;;;;;;5032958;28;20489;-66
2022/04/02 11:10:12;;;;;;;53.92;35.80;;;;;;;;;;5015278;28;20060;-64
2022/04/02 11:12:41;;;;;;;53.63;34.55;;;13.90;99.90;;;;;;5032904;28;20117;-67
2022/04/02 11:15:24;;;;;;;52.20;35.65;;;13.90;99.90;;;;;;5032389;28;20057;-66
2022/04/02 11:18:01;;;;;;;49.80;34.33;;;14.00;99.90;;;;;;5032790;28;20069;-65
2022/04/02 11:20:32;;;;;;;51.10;35.40;;;14.30;99.90;;;;;;5032837;28;20030;-66
2022/04/02 11:22:57;;;;;;;48.35;35.65;;;14.90;99.90;;;;;;5033065;28;20025;-65
2022/04/02 11:25:29;;;;;;;48.30;32.45;;;15.30;99.90;;;;;;5014936;28;20508;-63
2022/04/02 11:28:17;;;;;;;48.50;33.75;;;15.00;99.90;;;;;;5032790;28;20033;-66
2022/04/02 11:30:46;;;;;;;45.63;30.30;;;15.40;99.90;;;;;;5050318;28;20064;-66
2022/04/02 11:33:19;;;;;;;43.70;30.67;;;17.20;99.10;;;;;;5052637;28;20373;-64
2022/04/02 11:35:47;;;;;;;38.42;28.40;;;;;;;;;;5034838;28;20381;-63
2022/04/02 11:38:23;;;;;;;42.50;29.85;;;18.40;94.40;;;;;;5052637;28;20053;-72
2022/04/02 11:40:52;;;;;;;40.83;30.40;;;19.20;89.20;;;;;;5052614;28;20072;-67
2022/04/02 11:43:18;;;;;;;37.03;28.85;;;;;;;;;;5052817;28;20090;-66
2022/04/02 11:45:47;;;;;;;43.95;31.73;;;18.30;90.30;;;;;;5052007;28;20030;-66
2022/04/02 11:48:16;;;;;;;48.17;34.38;;;16.20;93.40;;;;;;5051760;28;20032;-67
2022/04/02 11:50:43;;;;;;;51.38;37.15;;;14.40;98.00;;;;;;5052499;28;20035;-65
2022/04/02 11:53:10;;;;;;;61.78;42.90;;;12.40;99.90;;;;;;5034467;28;20029;-66
2022/04/02 11:55:37;;;;;;;58.08;37.90;;;;;;;;;;5051711;28;20036;-66
2022/04/02 11:58:05;;;;;;;48.28;33.40;;;;;;;;;;5034654;28;20052;-65
2022/04/02 12:00:32;;;;;;;37.75;27.65;;;;;;;;;;5056336;28;20025;-65
2022/04/02 12:02:59;;;;;;;25.33;18.73;;;;;;;;;;5056039;28;20096;-65
2022/04/02 12:05:35;;;;;;;19.02;12.32;;;;;;;;;;5055985;28;20075;-65
2022/04/02 12:08:02;;;;;;;12.43;10.45;;;;;;;;;;5056045;28;20457;-68
2022/04/02 12:10:30;;;;;;;19.77;13.15;;;;;;;;;;5056145;28;20087;-67
2022/04/02 12:12:58;;;;;;;12.68;8.52;;;;;;;;;;5058171;28;20017;-65
2022/04/02 12:15:25;;;;;;;9.65;7.13;;;;;;;;;;5055239;28;20116;-69
2022/04/02 12:18:01;;;;;;;9.55;6.15;;;;;;;;;;5055881;28;20037;-67
2022/04/02 12:20:28;;;;;;;13.73;7.85;;;;;;;;;;5056006;28;20029;-66
2022/04/02 12:23:07;;;;;;;9.65;6.55;;;;;;;;;;5037932;28;20091;-65
2022/04/02 12:25:34;;;;;;;9.52;6.72;;;;;;;;;;5055764;28;20114;-65
2022/04/02 12:28:00;;;;;;;8.20;5.93;;;;;;;;;;5055676;28;20029;-65
2022/04/02 12:30:31;;;;;;;6.55;4.80;;;;;;;;;;5055628;28;20106;-64
2022/04/02 12:33:07;;;;;;;4.70;3.28;;;;;;;;;;5055517;28;20389;-64
2022/04/02 12:35:35;;;;;;;5.32;3.85;;;;;;;;;;5055725;28;20054;-64
2022/04/02 12:38:03;;;;;;;5.30;3.80;;;;;;;;;;5055626;28;20112;-65
2022/04/02 12:40:39;;;;;;;6.00;4.15;;;;;;;;;;5036165;28;20027;-65
2022/04/02 12:43:07;;;;;;;6.53;4.03;;;;;;;;;;5037443;28;20029;-64
2022/04/02 12:45:34;;;;;;;8.07;5.50;;;;;;;;;;5055280;28;20033;-65
2022/04/02 12:48:11;;;;;;;8.38;4.85;;;;;;;;;;5055071;28;20033;-65
2022/04/02 12:50:53;;;;;;;6.15;4.45;;;;;;;;;;5055211;28;20025;-65
2022/04/02 12:53:28;;;;;;;5.78;4.40;;;;;;;;;;5055316;28;20040;-64
2022/04/02 12:55:54;;;;;;;7.07;4.25;;;;;;;;;;5054933;28;20025;-65
2022/04/02 12:58:30;;;;;;;4.22;3.53;;;;;;;;;;5037247;28;20052;-66
2022/04/02 13:01:07;;;;;;;4.95;3.42;;;;;;;;;;5037046;28;20112;-64
2022/04/02 13:06:42;;;;;;;5.47;4.05;;;;;;;;;;5053342;28;20114;-65
2022/04/02 13:09:19;;;;;;;6.18;3.50;;;;;;;;;;5054967;28;20017;-64
2022/04/02 13:11:46;;;;;;;4.50;3.63;;;;;;;;;;5054185;28;20043;-64
2022/04/02 13:14:17;;;;;;;7.22;4.25;;;;;;;;;;5036886;28;20049;-64
2022/04/02 13:16:44;;;;;;;6.53;4.60;;;;;;;;;;5054937;28;20036;-64
2022/04/02 13:22:07;;;;;;;8.57;4.03;;;;;;;;;;5054662;28;20067;-64
2022/04/02 13:24:53;;;;;;;4.65;3.53;;;;;;;;;;5036830;28;20461;-65
2022/04/02 13:27:20;;;;;;;5.65;3.55;;;;;;;;;;5054758;28;20501;-65
2022/04/02 13:29:46;;;;;;;5.53;4.43;;;;;;;;;;5052574;28;20052;-64
2022/04/02 13:32:15;;;;;;;5.35;3.10;;;;;;;;;;5053364;28;20017;-64
2022/04/02 13:34:44;;;;;;;6.13;3.97;;;;;;;;;;5036227;28;20029;-65
2022/04/02 13:37:43;;;;;;;5.30;3.72;;;;;;;;;;5054484;28;20124;-64
2022/04/02 13:40:14;;;;;;;5.68;4.10;;;;;;;;;;5054160;28;20455;-64
2022/04/02 13:42:48;;;;;;;8.73;5.07;;;;;;;;;;5054084;28;20036;-65
2022/04/02 13:45:16;;;;;;;6.68;3.65;;;;;;;;;;5035782;28;20120;-64
2022/04/02 13:47:43;;;;;;;4.70;3.67;;;;;;;;;;5036340;28;20561;-65
2022/04/02 13:50:12;;;;;;;6.93;3.28;;;;;;;;;;5035759;28;20021;-67
2022/04/02 13:52:48;;;;;;;4.97;3.60;;;;;;;;;;5053988;28;20029;-67
2022/04/02 13:55:16;;;;;;;4.63;3.22;;;;;;;;;;5054213;28;20029;-65
2022/04/02 13:57:49;;;;;;;6.30;4.47;;;;;;;;;;5054390;28;20068;-66
2022/04/02 14:00:16;;;;;;;9.32;5.53;;;;;;;;;;5053999;28;20036;-64
2022/04/02 14:02:43;;;;;;;5.55;3.47;;;;;;;;;;5035962;28;20040;-64
2022/04/02 14:05:17;;;;;;;5.05;3.53;;;;;;;;;;5053665;28;20021;-64
2022/04/02 14:07:53;;;;;;;4.18;3.65;;;;;;;;;;5053939;28;20029;-64
2022/04/02 14:10:20;;;;;;;3.40;3.10;;;11.60;99.90;;;;;;5053695;28;20033;-65
2022/04/02 14:12:49;;;;;;;7.13;4.10;;;;;;;;;;5053895;28;20029;-64
2022/04/02 14:15:15;;;;;;;4.53;3.53;;;;;;;;;;5053664;28;20052;-64
2022/04/02 14:17:43;;;;;;;4.82;3.67;;;;;;;;;;5053994;28;20036;-64
2022/04/02 14:20:11;;;;;;;9.90;6.10;;;12.10;99.90;;;;;;5035293;28;20417;-64
2022/04/02 14:23:06;;;;;;;7.93;5.20;;;12.30;99.90;;;;;;5052638;28;20796;-64
2022/04/02 14:25:47;;;;;;;8.77;5.93;;;;;;;;;;5035585;28;20036;-63
2022/04/02 14:28:36;;;;;;;10.07;5.38;;;11.70;99.30;;;;;;5052902;28;20029;-64
2022/04/02 14:31:05;;;;;;;7.95;5.22;;;11.50;99.10;;;;;;5053007;28;20049;-64
2022/04/02 14:33:31;;;;;;;13.35;7.28;;;;;;;;;;5038146;28;20116;-64
2022/04/02 14:36:16;;;;;;;11.98;6.65;;;;;;;;;;5032747;28;20180;-64
2022/04/02 14:38:45;;;;;;;7.88;5.22;;;;;;;;;;5033224;28;20025;-65